createdAt,value
2022-10-21T00:05:31.783Z,0
2022-10-21T00:15:09.383Z,0
2022-10-21T00:24:46.634Z,0
2022-10-21T00:34:28.554Z,0
2022-10-21T00:44:00.941Z,0
2022-10-21T01:03:17.163Z,0
2022-10-21T01:12:55.002Z,0
2022-10-21T01:22:30.443Z,0
2022-10-21T01:32:07.388Z,0
2022-10-21T01:41:46.519Z,0
2022-10-21T01:51:22.041Z,0
2022-10-21T02:01:01.375Z,0
2022-10-21T02:29:51.200Z,0
2022-10-21T02:39:27.774Z,0
2022-10-21T02:49:07.508Z,0
2022-10-21T02:58:44.352Z,0
2022-10-21T03:08:20.038Z,0
2022-10-21T03:17:58.935Z,0
2022-10-21T03:27:36.453Z,0
2022-10-21T03:37:13.280Z,0
2022-10-21T03:46:48.941Z,0
2022-10-21T03:56:26.049Z,0
2022-10-21T04:06:03.712Z,0
2022-10-21T04:15:40.579Z,0
2022-10-21T04:25:19.535Z,0
2022-10-21T04:34:54.725Z,0
2022-10-21T04:44:30.913Z,0
2022-10-21T04:54:07.863Z,0
2022-10-21T05:03:44.986Z,0
2022-10-21T05:13:24.290Z,0
2022-10-21T05:42:12.880Z,25
2022-10-21T05:51:49.699Z,54.17
2022-10-21T06:01:28.333Z,127.5
2022-10-21T06:20:41.490Z,270
2022-10-21T06:30:21.863Z,355
2022-10-21T06:39:56.861Z,508.33
2022-10-21T06:49:36.718Z,670
2022-10-21T06:59:15.000Z,960
2022-10-21T07:08:58.067Z,940
2022-10-21T07:28:07.968Z,1230
2022-10-21T07:37:45.709Z,1593.33
2022-10-21T07:47:26.458Z,1967.5
2022-10-21T07:57:04.879Z,1890
2022-10-21T08:06:40.816Z,1648.33
2022-10-21T08:16:18.581Z,2470
2022-10-21T08:25:57.399Z,2525
2022-10-21T08:45:13.244Z,2482.5
2022-10-21T08:54:53.075Z,1582.5
2022-10-21T09:04:28.584Z,1372.5
2022-10-21T09:14:07.592Z,1164.17
2022-10-21T09:23:45.521Z,1693.33
2022-10-21T09:33:21.783Z,1787.5
2022-10-21T09:43:01.498Z,1364.17
2022-10-21T10:02:14.706Z,1966.67
2022-10-21T10:11:55.744Z,2643.33
2022-10-21T10:21:31.821Z,3319.17
2022-10-21T10:31:12.698Z,1854.17
2022-10-21T10:40:50.310Z,1790.83
2022-10-21T10:50:27.448Z,2258.33
2022-10-21T11:00:06.437Z,1570
2022-10-21T11:09:42.348Z,923.33
2022-10-21T11:19:18.769Z,778.33
2022-10-21T11:28:53.951Z,707.5
2022-10-21T11:38:29.883Z,781.67
2022-10-21T11:48:07.053Z,866.67
2022-10-21T12:07:21.042Z,761.67
2022-10-21T12:16:57.987Z,693.33
2022-10-21T12:26:35.495Z,940.83
2022-10-21T12:36:13.213Z,866.67
2022-10-21T12:55:30.718Z,893.33
2022-10-21T13:05:08.473Z,860.83
2022-10-21T13:24:24.914Z,941.67
2022-10-21T13:34:02.893Z,1322.5
2022-10-21T13:43:38.684Z,1167.5
2022-10-21T13:53:16.867Z,2774.17
2022-10-21T14:03:16.625Z,6126.67
2022-10-21T14:12:42.127Z,1819.17
2022-10-21T14:22:17.233Z,370
2022-10-21T14:31:50.636Z,149.17
2022-10-21T14:41:26.845Z,210.83
2022-10-21T14:51:05.367Z,247.5
2022-10-21T15:10:19.454Z,434.17
2022-10-21T15:19:58.510Z,65.83
2022-10-21T15:29:33.846Z,135
2022-10-21T15:39:12.384Z,119.17
2022-10-21T15:58:27.350Z,122.5
2022-10-21T16:08:04.498Z,45
2022-10-21T16:17:39.725Z,16.67
2022-10-21T16:27:26.493Z,4.17
2022-10-21T16:36:53.867Z,0.83
2022-10-21T16:46:30.948Z,0
2022-10-21T16:56:07.560Z,0
2022-10-21T17:05:46.724Z,0
2022-10-21T17:25:01.592Z,0
2022-10-21T17:34:37.363Z,0
2022-10-21T17:44:14.678Z,0
2022-10-21T17:53:51.951Z,0
2022-10-21T18:03:31.597Z,0
2022-10-21T18:13:07.042Z,0
2022-10-21T18:22:44.460Z,0
2022-10-21T18:32:21.449Z,0
2022-10-21T18:42:00.419Z,0
2022-10-21T18:51:38.481Z,0
2022-10-21T19:10:51.330Z,0
2022-10-21T19:20:30.641Z,0
2022-10-21T19:30:05.992Z,0
2022-10-21T19:39:45.388Z,0
2022-10-21T19:49:22.838Z,0
2022-10-21T20:08:35.544Z,0
2022-10-21T20:18:14.568Z,0
2022-10-21T20:37:27.803Z,0
2022-10-21T20:47:06.890Z,0
2022-10-21T20:56:42.452Z,0
2022-10-21T21:06:21.526Z,0
2022-10-21T21:15:57.354Z,0
2022-10-21T21:25:35.010Z,0
2022-10-21T21:35:12.528Z,0
2022-10-21T21:44:48.937Z,0
2022-10-21T21:54:28.467Z,0
2022-10-21T22:04:04.867Z,0
2022-10-21T22:13:42.465Z,0
2022-10-21T22:23:19.730Z,0
2022-10-21T22:32:59.272Z,0
2022-10-21T22:42:35.011Z,0
2022-10-21T22:52:12.865Z,0
2022-10-21T23:01:50.397Z,0
2022-10-21T23:11:29.506Z,0
2022-10-21T23:21:06.938Z,0
2022-10-21T23:30:42.900Z,0
2022-10-21T23:40:21.839Z,0
